Independence, CA (93526)

8:32 AM PDT on July 30, 2016 (GMT -0700)
Little Hollywood | | Change Station

Elev 3727 ft 36.60 °N, 118.06 °W | Updated 55 seconds ago

Clear
Clear
80.6 °F
Feels Like 80 °F
N
0.0
Wind Variable Wind from ESE

Today
High -- | Low -- °F
--% Chance of Precip.
Yesterday
High -- | Low -- °F
Precip. -- in
Pressure 29.82 in
Visibility 10.0 miles
Clouds Clear
Heat Index 80 °F
Dew Point 48 °F
Humidity 32%
Rainfall 0.00 in
Snow Depth Not available.
5:57 AM 8:00 PM
Waning Crescent, 12% visible
METAR KBIH 301456Z AUTO 34003KT 10SM CLR 25/08 A3000 RMK AO2 SLP098 T02500078 51010
Pressure 29.82 in
Visibility 10.0 miles
Clouds Clear
Heat Index 80 °F
Dew Point 48 °F
Humidity 32%
Rainfall 0.00 in
Snow Depth Not available.
5:57 AM 8:00 PM
Waning Crescent, 12% visible
METAR KBIH 301456Z AUTO 34003KT 10SM CLR 25/08 A3000 RMK AO2 SLP098 T02500078 51010

10-Day Weather Forecast

Almanac

Astronomy

Jul. 30, 2016 Rise Set
Actual Time
Civil Twilight
Nautical Twilight
Astronomical Twilight
Moon
Length of Visible Light
Length of Day
Tomorrow will be .
, % of the Moon is Illuminated

Today's Extremes

State Highs State Lows

Community

WunderPhotos

Upload Photos

1,928,587 photos uploaded!

WunderBlog® & News

Nearby

Air Quality

  Air Quality AQ Index Pollutant
Not available.

Snow Depth

Station Depth Elevation

Earthquake Activity

City Distance Mag. Time & Date
Minimum magnitude displayed is 2.5.

Coastal Water Temperatures

Place Temperature

Stations

Nearby Weather Stations

Station Location Temp. Windchill Dew Point Humidity Wind Precip. Elev Updated Type
                   

Watches & Warnings

There are currently no watches in effect.